Flight Track Log - Related Links

Times and Time Zones

All times are in EDT time to prevent confusion due to time zone crossing. See the AWI3780 flight status page for this flight to view local times or setup timezone preferences in your user account.

Time Position Orientation Groundspeed Altitude Reporting Facility
EDT Latitude Longitude Course Direction KTS MPH feet Rate Location/Type
Tue 02:25:28 PM 39.8833 -75.2167 90° East 145 167 800  Level Philadelphia TRACON
Tue 02:26:04 PM 39.8833 -75.1833 90° East 159 183 2,000 2,063 Climbing Philadelphia TRACON
Tue 02:27:04 PM 39.9167 -75.1167 57° Northeast 207 238 4,100 2,190 Climbing Philadelphia TRACON
Tue 02:28:10 PM 39.9500 -75.0500 57° Northeast 235 270 6,600 2,150 Climbing Philadelphia TRACON
Tue 02:29:04 PM 40.0000 -75.0833 333° Northwest 271 312 8,400 1,579 Climbing Philadelphia TRACON
Tue 02:30:04 PM 40.0500 -75.1833 303° West 313 360 9,600 918 Climbing Philadelphia TRACON
Tue 02:32:07 PM 40.1397 -75.3894 300° West 375 432 11,200 1,082 Climbing New York Center
Tue 02:33:07 PM 40.1858 -75.4875 302° West 365 420 12,900 1,385 Climbing New York Center
Tue 02:34:04 PM 40.2436 -75.6058 303° West 374 430 13,900 1,678 Climbing New York Center
Tue 02:35:05 PM 40.2933 -75.7153 301° West 369 425 16,200 1,561 Climbing New York Center
Tue 02:36:07 PM 40.3525 -75.8450 301° West 369 425 17,100 800 Climbing New York Center
Tue 02:37:05 PM 40.4097 -75.9636 302° West 381 438 17,800 966 Climbing New York Center
Tue 02:38:05 PM 40.4911 -76.0597 318° Northwest 387 445 19,000 1,339 Climbing New York Center
Tue 02:39:06 PM 40.5881 -76.1247 333° Northwest 387 445 20,500 1,785 Climbing New York Center
Tue 02:40:06 PM 40.6858 -76.1789 337° Northwest 381 438 22,600 1,600 Climbing New York Center
Tue 02:41:06 PM 40.7667 -76.1853 357° North 371 427 23,700 1,190 Climbing New York Center
Tue 02:42:07 PM 40.8831 -76.1450 15° North 347 399 25,000 645 Climbing New York Center
Tue 02:43:07 PM 40.9628 -76.0442 44° Northeast 342 394 25,000  Level New York Center
Tue 02:44:05 PM 41.0675 -75.9808 25° Northeast 381 438 25,000  Level New York Center
Tue 02:45:04 PM 41.1836 -75.9483 12° North 406 467 25,000  Level New York Center
Tue 02:46:05 PM 41.3003 -75.8967 18° North 419 482 25,000  Level New York Center
Tue 02:47:07 PM 41.3997 -75.8156 31° Northeast 426 490 25,000  Level New York Center
Tue 02:48:39 PM 41.5556 -75.6806 33° Northeast 452 520 25,000  Level Boston Center
Tue 02:49:39 PM 41.6431 -75.6128 30° Northeast 404 465 25,000  Level Boston Center
Tue 02:50:39 PM 41.7369 -75.5367 31° Northeast 393 452 25,000  Level Boston Center
Tue 02:51:39 PM 41.8267 -75.4603 32° Northeast 393 452 25,000  Level Boston Center
Tue 02:52:39 PM 41.9181 -75.3839 32° Northeast 393 452 25,000  Level Boston Center
Tue 02:53:39 PM 42.0078 -75.3097 32° Northeast 388 447 25,000  Level Boston Center
Tue 02:54:39 PM 42.0969 -75.2383 31° Northeast 388 447 25,000  Level Boston Center
Tue 02:55:39 PM 42.1864 -75.1608 33° Northeast 382 440 25,000  Level Boston Center
Tue 02:56:39 PM 42.2736 -75.0889 31° Northeast 376 433 25,000  Level Boston Center
Tue 02:57:39 PM 42.3608 -75.0167 31° Northeast 376 433 25,000  Level Boston Center
Tue 02:58:51 PM 42.4500 -74.9389 33° Northeast 376 433 25,000  Level Boston Center
Tue 02:59:51 PM 42.5561 -74.8500 32° Northeast 376 433 25,000  Level Boston Center
Tue 03:00:51 PM 42.6453 -74.7744 32° Northeast 376 433 25,000  Level Boston Center
Tue 03:01:51 PM 42.7153 -74.7150 32° Northeast 376 433 25,000  Level Boston Center
Tue 03:02:51 PM 42.8214 -74.6256 32° Northeast 376 433 25,000  Level Boston Center
Tue 03:03:51 PM 42.9081 -74.5492 33° Northeast 371 427 25,000 -100 Level Boston Center
Tue 03:04:51 PM 42.9972 -74.4669 34° Northeast 371 427 24,800 -500 Descending Boston Center
Tue 03:05:51 PM 43.0881 -74.3906 32° Northeast 376 433 24,000 -400 Descending Boston Center
Tue 03:06:51 PM 43.1769 -74.3136 32° Northeast 376 433 24,000 -600 Level Boston Center
Tue 03:07:51 PM 43.2764 -74.2253 33° Northeast 376 433 22,800 -1,350 Descending Boston Center
Tue 03:08:51 PM 43.3672 -74.1481 32° Northeast 381 438 21,300 -1,500 Descending Boston Center
Tue 03:09:51 PM 43.4581 -74.0647 34° Northeast 381 438 19,800 -1,500 Descending Boston Center
Tue 03:10:51 PM 43.5467 -73.9869 32° Northeast 381 438 18,300 -1,450 Descending Boston Center
Tue 03:11:51 PM 43.6353 -73.9089 33° Northeast 381 438 16,900 -1,450 Descending Boston Center
Tue 03:12:51 PM 43.7217 -73.8306 33° Northeast 381 438 15,400 -1,500 Descending Boston Center
Tue 03:13:51 PM 43.8119 -73.7550 31° Northeast 381 438 13,900 -1,450 Descending Boston Center
Tue 03:14:51 PM 43.8922 -73.6789 34° Northeast 369 425 12,500 -1,450 Descending Boston Center
Tue 03:15:51 PM 43.9636 -73.6228 29° Northeast 342 394 11,000 -1,500 Descending Boston Center
Tue 03:16:51 PM 44.0431 -73.5750 23° Northeast 316 364 9,500 -1,500 Descending Boston Center
Tue 03:17:51 PM 44.1186 -73.5333 22° Northeast 297 342 8,000 -1,500 Descending Boston Center
Tue 03:18:51 PM 44.1878 -73.4911 24° Northeast 278 320 6,500 -1,000 Descending Boston Center
Tue 03:19:51 PM 44.2569 -73.4458 25° Northeast 273 314 6,000 -400 Descending Boston Center
Tue 03:20:51 PM 44.3239 -73.4036 24° Northeast 273 314 5,700 -1,050 Descending Boston Center
Tue 03:21:51 PM 44.3953 -73.3581 25° Northeast 273 314 3,900 -1,650 Descending Boston Center
Tue 03:22:51 PM 44.4558 -73.3156 27° Northeast 262 302 2,400 -1,100 Descending Boston Center
Tue 03:23:51 PM 44.5000 -73.2636 40° Northeast 221 254 1,700 -700 Descending Boston Center
Tue 03:24:51 PM 44.5047 -73.2056 83° East 162 186 1,000 -700 Descending Boston Center
Tue 03:25:51 PM 44.4778 -73.1644 133° Southeast 128 147 300 -350 Descending Boston Center
Tue 03:26:51 PM 44.4717 -73.1528 126° Southeast 94 108 300  Level Boston Center
Tue 03:27:51 PM 44.4717 -73.1558 270° West 52 60 300  Level Boston Center
Tue 03:28:51 PM 44.4656 -73.1439 126° Southeast 33 38 300  Level Boston Center

Login

Don't have an account? Register now (free) for customized features, flight alerts, and more!